Time;durP1;ratioP1;P1;durP2;ratioP2;P2;SDS_P1;SDS_P2;PMS_P1;PMS_P2;Temp;Humidity;BMP_temperature;BMP_pressure;BME280_temperature;BME280_humidity;BME280_pressure;Samples;Min_cycle;Max_cycle;Signal;HPM_P1;HPM_P2
2021/01/04 00:01:53;;;;;;;40.00;16.83;;;;;;;3.23;85.17;98217.84;5069735;28;20017;-62
2021/01/04 00:04:39;;;;;;;33.57;16.73;;;;;;;3.36;85.44;98222.09;5067010;28;20028;-62
2021/01/04 00:07:38;;;;;;;39.37;16.93;;;;;;;3.41;85.32;98222.13;5077201;28;20020;-62
2021/01/04 00:10:51;;;;;;;35.80;17.97;;;;;;;3.42;84.98;98217.06;5077938;28;20024;-62
2021/01/04 00:13:32;;;;;;;41.83;18.20;;;;;;;3.46;84.35;98220.44;4996336;28;20042;-62
2021/01/04 00:16:45;;;;;;;49.83;24.67;;;;;;;3.52;84.78;98226.38;4995276;28;20053;-62
2021/01/04 00:19:38;;;;;;;41.97;20.00;;;;;;;3.57;83.89;98227.22;4938047;29;20056;-63
2021/01/04 00:22:24;;;;;;;37.20;19.13;;;;;;;3.53;84.23;98224.69;4956385;29;20393;-63
2021/01/04 00:25:12;;;;;;;39.20;18.98;;;;;;;3.53;84.51;98223.00;4956877;29;20114;-62
2021/01/04 00:27:46;;;;;;;39.07;17.57;;;;;;;3.45;84.32;98221.28;4956269;29;20453;-62
2021/01/04 00:30:23;;;;;;;36.07;15.73;;;;;;;3.50;84.49;98223.00;4957107;29;20031;-62
2021/01/04 00:32:50;;;;;;;35.63;17.80;;;;;;;3.45;84.04;98217.06;4955956;29;20592;-62
2021/01/04 00:35:19;;;;;;;37.27;17.63;;;;;;;3.47;84.00;98215.41;4957051;29;20396;-62
2021/01/04 00:38:23;;;;;;;37.53;18.93;;;;;;;3.54;83.65;98212.03;4929759;29;20361;-62
2021/01/04 00:41:08;;;;;;;34.77;17.33;;;;;;;3.55;83.55;98215.41;4933168;29;20059;-62
2021/01/04 00:43:40;;;;;;;31.75;15.77;;;;;;;3.45;83.50;98223.81;4975759;28;20038;-62
2021/01/04 00:46:07;;;;;;;37.23;18.10;;;;;;;3.38;83.51;98233.09;5014388;28;20446;-62
2021/01/04 00:48:37;;;;;;;39.57;20.27;;;;;;;3.47;83.74;98238.19;5012940;28;20033;-62
2021/01/04 00:51:26;;;;;;;35.47;16.67;;;;;;;3.51;82.96;98234.84;5014011;28;20038;-63
2021/01/04 00:53:52;;;;;;;38.20;18.60;;;;;;;3.50;82.91;98237.34;5014549;28;20117;-62
2021/01/04 00:56:33;;;;;;;39.20;18.60;;;;;;;3.44;82.93;98240.72;5049241;28;20452;-62
2021/01/04 00:59:12;;;;;;;38.13;18.03;;;;;;;3.51;83.20;98246.66;5075692;28;20050;-62
2021/01/04 01:01:47;;;;;;;32.60;15.97;;;;;;;3.40;82.59;98258.44;5074774;28;20028;-62
2021/01/04 01:04:32;;;;;;;32.97;16.38;;;;;;;3.47;83.05;98250.88;5061478;28;20115;-62
2021/01/04 01:07:02;;;;;;;36.70;17.65;;;;;;;3.44;82.92;98244.91;5056112;28;20095;-63
2021/01/04 01:09:32;;;;;;;32.57;17.27;;;;;;;3.44;82.73;98248.31;5070675;28;20051;-62
2021/01/04 01:12:15;;;;;;;32.83;15.33;;;;;;;3.41;82.91;98255.91;5076304;28;20020;-63
2021/01/04 01:14:43;;;;;;;30.23;15.77;;;;;;;3.29;82.83;98260.94;5075073;28;20040;-62
2021/01/04 01:17:45;;;;;;;35.80;16.27;;;;;;;3.37;82.71;98263.50;5075970;28;20070;-62
2021/01/04 01:20:15;;;;;;;37.47;17.67;;;;;;;3.33;82.77;98265.19;5066157;28;20032;-62
2021/01/04 01:22:41;;;;;;;40.03;19.90;;;;;;;3.32;82.70;98260.94;5075411;28;20047;-62
2021/01/04 01:25:16;;;;;;;32.97;16.93;;;;;;;3.37;82.06;98261.81;5074704;28;20017;-62
2021/01/04 01:28:18;;;;;;;34.85;16.58;;;;;;;3.36;81.45;98262.63;5075638;28;20033;-62
2021/01/04 01:31:11;;;;;;;38.90;17.07;;;;;;;3.28;81.60;98256.69;5075905;28;20029;-62
2021/01/04 01:34:07;;;;;;;39.73;18.93;;;;;;;3.30;81.15;98254.19;5074554;28;20021;-62
2021/01/04 01:36:44;;;;;;;40.03;18.75;;;;;;;3.19;81.55;98251.59;5075980;28;20469;-62
2021/01/04 01:39:32;;;;;;;35.60;17.40;;;;;;;3.23;81.75;98260.91;5074450;28;20113;-62
2021/01/04 01:42:16;;;;;;;33.57;17.93;;;;;;;3.13;81.72;98265.09;5075545;28;20071;-62
2021/01/04 01:45:11;;;;;;;36.43;18.23;;;;;;;3.08;81.96;98268.44;5072906;28;20020;-62
2021/01/04 01:47:55;;;;;;;40.37;18.07;;;;;;;3.13;81.84;98264.25;5060984;28;20075;-62
2021/01/04 01:50:39;;;;;;;39.33;17.47;;;;;;;2.93;81.76;98255.72;5074378;28;20036;-62
2021/01/04 01:53:23;;;;;;;46.50;22.30;;;;;;;3.03;82.18;98257.44;5075229;28;20028;-62
2021/01/04 01:56:13;;;;;;;46.87;19.33;;;;;;;3.05;81.47;98259.16;5073960;28;20368;-62
2021/01/04 01:58:47;;;;;;;39.23;20.70;;;;;;;3.02;81.55;98259.13;5055801;28;20112;-62
2021/01/04 02:01:19;;;;;;;42.03;20.85;;;;;;;3.00;81.74;98254.91;5061829;28;20112;-62
2021/01/04 02:04:03;;;;;;;41.40;19.60;;;;;;;3.02;81.61;98255.75;5075557;28;20032;-62
2021/01/04 02:06:51;;;;;;;49.13;20.50;;;;;;;2.96;81.92;98259.13;5073626;28;20025;-62
2021/01/04 02:09:22;;;;;;;47.40;20.50;;;;;;;2.99;81.91;98256.59;5075460;28;20017;-62
2021/01/04 02:12:09;;;;;;;51.37;21.97;;;;;;;3.05;81.64;98255.78;5073603;28;20103;-62
2021/01/04 02:15:03;;;;;;;42.33;20.67;;;;;;;3.07;81.77;98259.16;5074824;28;20032;-62
2021/01/04 02:18:03;;;;;;;49.40;24.20;;;;;;;3.11;82.13;98255.78;5074366;28;20028;-62
2021/01/04 02:21:04;;;;;;;55.70;27.33;;;;;;;3.05;82.29;98253.25;5074181;28;20024;-62
2021/01/04 02:24:00;;;;;;;52.53;25.57;;;;;;;3.10;81.60;98243.97;5055473;28;20041;-62
2021/01/04 02:26:26;;;;;;;44.47;20.87;;;;;;;2.98;82.25;98236.31;5055901;28;20099;-62
2021/01/04 02:29:09;;;;;;;44.37;19.53;;;;;;;3.06;82.15;98239.72;5075296;28;20113;-62
2021/01/04 02:31:37;;;;;;;40.10;19.27;;;;;;;3.01;82.62;98238.88;5073651;28;20024;-62
2021/01/04 02:34:06;;;;;;;43.90;19.67;;;;;;;3.01;82.26;98241.41;5073617;28;20768;-62
2021/01/04 02:36:37;;;;;;;41.53;18.53;;;;;;;3.05;82.10;98235.53;5073251;28;20032;-62
2021/01/04 02:39:28;;;;;;;47.03;19.70;;;;;;;3.06;82.18;98229.59;5074960;28;20035;-62
2021/01/04 02:42:01;;;;;;;40.30;20.17;;;;;;;3.03;82.32;98222.84;5073333;28;20051;-62
2021/01/04 02:44:27;;;;;;;42.13;19.03;;;;;;;2.98;82.14;98221.13;5074670;28;20028;-62
2021/01/04 02:47:30;;;;;;;38.57;18.63;;;;;;;3.11;82.34;98228.78;5073265;28;20032;-61
2021/01/04 02:50:18;;;;;;;45.17;21.00;;;;;;;3.03;82.28;98227.06;5074267;28;20024;-61
2021/01/04 02:53:00;;;;;;;45.47;20.77;;;;;;;3.04;82.55;98221.16;5073408;28;20104;-61
2021/01/04 02:55:53;;;;;;;47.13;21.57;;;;;;;3.06;82.49;98217.78;5074312;28;20065;-61
2021/01/04 02:58:40;;;;;;;44.37;20.17;;;;;;;3.03;82.76;98222.00;5073579;28;20031;-61
2021/01/04 03:01:11;;;;;;;45.90;20.63;;;;;;;2.95;83.30;98229.56;5073597;28;20036;-61
2021/01/04 03:03:38;;;;;;;52.13;22.83;;;;;;;2.89;83.93;98218.53;5073732;28;20028;-62
2021/01/04 03:06:09;;;;;;;48.57;20.70;;;;;;;2.97;83.87;98219.47;5072871;28;20032;-61
2021/01/04 03:08:35;;;;;;;52.67;21.50;;;;;;;2.94;83.77;98212.69;5072843;28;20449;-61
2021/01/04 03:11:00;;;;;;;51.33;21.63;;;;;;;2.82;83.89;98217.69;5073566;28;20100;-61
2021/01/04 03:13:55;;;;;;;55.47;23.17;;;;;;;2.90;84.08;98217.72;5072323;28;20016;-61
2021/01/04 03:16:32;;;;;;;50.73;23.57;;;;;;;2.95;84.71;98221.97;5063705;28;20377;-61
2021/01/04 03:19:09;;;;;;;53.63;23.33;;;;;;;2.89;84.28;98223.59;5063363;28;20017;-61
2021/01/04 03:21:35;;;;;;;57.20;22.47;;;;;;;2.92;84.70;98223.66;5065163;28;20024;-61
2021/01/04 03:24:02;;;;;;;53.07;22.97;;;;;;;2.88;84.56;98221.94;5066251;28;20094;-61
2021/01/04 03:26:38;;;;;;;56.47;22.50;;;;;;;2.96;84.26;98226.19;5065110;28;20086;-61
2021/01/04 03:29:04;;;;;;;61.83;24.53;;;;;;;2.90;84.25;98236.28;5065141;28;20377;-61
2021/01/04 03:31:29;;;;;;;52.13;24.10;;;;;;;2.85;84.56;98243.00;5073671;28;20066;-61
2021/01/04 03:33:55;;;;;;;65.13;27.43;;;;;;;2.92;84.44;98239.69;5073887;28;20020;-61
2021/01/04 03:36:21;;;;;;;68.80;23.27;;;;;;;2.96;84.39;98235.47;5073384;28;20500;-61
2021/01/04 03:38:46;;;;;;;57.20;22.33;;;;;;;2.95;84.40;98237.16;5073995;28;20078;-61
2021/01/04 03:41:13;;;;;;;60.33;24.37;;;;;;;2.94;83.79;98242.19;5074093;28;20032;-62
2021/01/04 03:43:41;;;;;;;61.47;26.73;;;;;;;3.02;84.02;98245.63;5073910;28;20020;-62
2021/01/04 03:46:07;;;;;;;60.17;23.83;;;;;;;2.94;83.12;98242.19;5074023;28;20086;-62
2021/01/04 03:48:32;;;;;;;53.57;22.67;;;;;;;2.94;83.15;98249.78;5073092;28;20461;-62
2021/01/04 03:50:58;;;;;;;57.17;22.97;;;;;;;2.95;83.00;98244.75;5073849;28;20361;-62
2021/01/04 03:53:24;;;;;;;54.57;21.63;;;;;;;2.96;82.62;98245.59;5073826;28;20491;-63
2021/01/04 03:55:49;;;;;;;49.73;22.60;;;;;;;3.00;82.76;98252.38;5074890;28;20076;-61
2021/01/04 03:58:15;;;;;;;46.90;21.97;;;;;;;2.98;82.61;98254.03;5074333;28;20457;-61
2021/01/04 04:00:40;;;;;;;51.17;22.00;;;;;;;2.91;82.74;98248.13;5074682;28;20349;-62
2021/01/04 04:03:06;;;;;;;59.50;23.30;;;;;;;2.83;82.55;98259.03;5074629;28;20036;-61
2021/01/04 04:05:32;;;;;;;51.03;20.23;;;;;;;2.83;82.46;98261.56;5073632;28;20025;-62
2021/01/04 04:07:59;;;;;;;48.93;21.70;;;;;;;2.81;82.74;98260.69;5074053;28;20021;-63
2021/01/04 04:10:24;;;;;;;52.40;23.67;;;;;;;2.80;82.58;98262.38;5073705;28;20027;-62
2021/01/04 04:12:50;;;;;;;42.77;19.47;;;;;;;2.85;82.64;98260.72;5073468;28;20029;-61
2021/01/04 04:15:18;;;;;;;44.77;20.07;;;;;;;2.92;81.90;98265.00;5071794;28;20036;-62
2021/01/04 04:17:45;;;;;;;59.30;22.93;;;;;;;2.85;82.31;98268.31;5071238;28;20107;-61
2021/01/04 04:20:16;;;;;;;48.50;22.50;;;;;;;2.87;81.54;98268.34;5072837;28;20028;-61
2021/01/04 04:22:41;;;;;;;46.20;22.47;;;;;;;2.78;82.08;98268.28;5068476;28;20392;-61
2021/01/04 04:25:09;;;;;;;45.80;21.53;;;;;;;2.88;82.06;98277.63;5071099;28;20032;-61
2021/01/04 04:27:35;;;;;;;43.97;21.13;;;;;;;2.88;81.56;98277.63;5069049;28;20016;-61
2021/01/04 04:30:03;;;;;;;53.30;22.27;;;;;;;2.86;81.59;98269.16;5070520;28;20036;-61
2021/01/04 04:32:28;;;;;;;46.00;20.17;;;;;;;2.79;82.08;98275.03;5072352;28;20100;-61
2021/01/04 04:34:54;;;;;;;50.47;20.63;;;;;;;2.81;81.98;98265.75;5069384;28;20175;-61
2021/01/04 04:37:19;;;;;;;39.50;18.87;;;;;;;2.76;81.45;98269.09;5072176;28;20472;-61
2021/01/04 04:39:45;;;;;;;47.70;21.80;;;;;;;2.72;81.33;98266.56;5069913;28;20080;-61
2021/01/04 04:42:13;;;;;;;48.37;21.70;;;;;;;2.83;81.75;98267.47;5071784;28;20034;-61
2021/01/04 04:44:41;;;;;;;49.97;22.13;;;;;;;2.75;81.41;98269.97;5071259;28;20016;-62
2021/01/04 04:47:12;;;;;;;41.43;19.90;;;;;;;2.69;81.63;98267.38;5070046;28;20349;-61
2021/01/04 04:50:09;;;;;;;44.47;19.53;;;;;;;2.72;81.80;98272.47;5072848;28;20017;-61
2021/01/04 04:53:09;;;;;;;47.00;20.40;;;;;;;2.70;81.43;98273.31;5074440;28;20028;-62
2021/01/04 04:55:56;;;;;;;47.97;20.87;;;;;;;2.73;81.93;98269.09;5073502;28;20375;-62
2021/01/04 04:58:24;;;;;;;49.47;21.93;;;;;;;2.64;81.98;98269.03;5066594;28;20029;-61
2021/01/04 05:01:10;;;;;;;47.07;21.20;;;;;;;2.70;82.28;98269.09;5070945;28;20017;-61
2021/01/04 05:03:48;;;;;;;50.53;23.53;;;;;;;2.62;82.98;98263.13;5067912;28;20025;-62
2021/01/04 05:06:19;;;;;;;61.10;23.90;;;;;;;2.65;83.43;98273.28;5073160;28;20032;-62
2021/01/04 05:08:59;;;;;;;55.23;22.13;;;;;;;2.59;82.77;98275.75;5074573;28;20031;-61
2021/01/04 05:11:32;;;;;;;61.50;23.07;;;;;;;2.65;83.70;98282.53;5074869;28;20024;-61
2021/01/04 05:13:57;;;;;;;53.07;22.57;;;;;;;2.52;83.87;98276.56;5075329;28;20020;-60
2021/01/04 05:16:50;;;;;;;55.00;20.83;;;;;;;2.64;84.15;98284.22;5076371;28;20028;-60
2021/01/04 05:19:48;;;;;;;56.90;23.70;;;;;;;2.63;84.54;98279.16;5070409;28;20392;-60
2021/01/04 05:22:55;;;;;;;58.97;23.87;;;;;;;2.63;84.45;98287.59;5065746;28;20032;-60
2021/01/04 05:25:32;;;;;;;54.93;22.23;;;;;;;2.54;85.40;98287.53;5013582;28;20049;-61
2021/01/04 05:28:16;;;;;;;57.43;24.97;;;;;;;2.45;85.07;98279.88;5014507;28;20356;-61
2021/01/04 05:30:47;;;;;;;53.07;20.43;;;;;;;2.57;85.75;98285.03;5014639;28;20459;-61
2021/01/04 05:33:31;;;;;;;47.93;20.93;;;;;;;2.45;85.45;98282.41;5014535;28;20034;-62
2021/01/04 05:36:12;;;;;;;40.87;19.00;;;;;;;2.44;85.66;98278.19;4997513;28;20054;-61
2021/01/04 05:38:47;;;;;;;47.57;21.53;;;;;;;2.43;85.60;98271.41;4995186;28;20033;-61
2021/01/04 05:41:43;;;;;;;42.83;19.50;;;;;;;2.41;85.81;98273.13;4994967;28;20056;-61
2021/01/04 05:44:17;;;;;;;36.10;19.23;;;;;;;2.30;86.76;98267.97;4994914;28;20176;-61
2021/01/04 05:47:24;;;;;;;44.83;21.43;;;;;;;2.41;86.03;98263.00;4995050;28;20030;-61
2021/01/04 05:50:14;;;;;;;46.50;21.27;;;;;;;2.29;86.50;98266.25;4994939;28;20038;-61
2021/01/04 05:52:40;;;;;;;41.73;20.23;;;;;;;2.27;86.77;98262.03;4994663;28;20057;-61
2021/01/04 05:55:06;;;;;;;47.93;21.40;;;;;;;2.36;86.32;98266.31;4994777;28;20065;-61
2021/01/04 05:57:31;;;;;;;51.00;20.20;;;;;;;2.33;85.74;98267.16;4994890;28;20482;-61
2021/01/04 05:59:58;;;;;;;55.70;21.03;;;;;;;2.34;85.63;98278.09;4994411;28;20022;-62
2021/01/04 06:02:25;;;;;;;54.23;24.83;;;;;;;2.37;86.16;98275.59;5016303;28;20038;-60
2021/01/04 06:04:51;;;;;;;63.03;25.47;;;;;;;2.35;86.23;98275.59;5035415;28;20033;-62
2021/01/04 06:07:18;;;;;;;67.57;26.73;;;;;;;2.33;86.15;98272.22;5034983;28;20053;-60
2021/01/04 06:09:55;;;;;;;65.57;25.63;;;;;;;2.39;86.17;98268.84;5035568;28;20021;-60
2021/01/04 06:12:32;;;;;;;65.73;26.67;;;;;;;2.41;86.80;98270.59;5029553;28;20040;-60
2021/01/04 06:14:58;;;;;;;57.40;24.07;;;;;;;2.37;86.27;98271.41;5036301;28;20100;-60
2021/01/04 06:17:29;;;;;;;56.50;24.57;;;;;;;2.48;86.27;98277.38;5035324;28;20109;-60
2021/01/04 06:20:01;;;;;;;61.67;23.63;;;;;;;2.48;85.66;98286.63;5034881;28;20032;-60
2021/01/04 06:22:29;;;;;;;53.23;22.50;;;;;;;2.48;85.71;98279.91;5035668;28;20033;-60
2021/01/04 06:25:05;;;;;;;57.40;22.43;;;;;;;2.46;86.38;98281.56;5034870;28;20025;-60
2021/01/04 06:27:40;;;;;;;64.80;23.27;;;;;;;2.47;86.01;98285.78;5030978;28;20033;-61
2021/01/04 06:30:14;;;;;;;66.57;24.80;;;;;;;2.54;86.14;98281.63;5035241;28;20497;-61
2021/01/04 06:32:40;;;;;;;49.33;20.33;;;;;;;2.44;86.24;98288.31;5034170;28;20040;-61
2021/01/04 06:35:20;;;;;;;56.30;24.87;;;;;;;2.59;85.69;98282.53;5048228;28;20044;-61
2021/01/04 06:37:45;;;;;;;53.50;21.57;;;;;;;2.43;86.21;98293.34;5069103;28;20040;-61
2021/01/04 06:40:33;;;;;;;55.37;23.80;;;;;;;2.48;86.57;98292.53;5071363;28;20024;-61
2021/01/04 06:43:09;;;;;;;46.63;21.67;;;;;;;2.53;86.40;98288.38;5074794;28;20449;-61
2021/01/04 06:46:12;;;;;;;48.77;22.87;;;;;;;2.50;86.38;98285.84;5071658;28;20453;-61
2021/01/04 06:48:40;;;;;;;50.63;22.00;;;;;;;2.48;85.86;98295.06;5074219;28;20024;-61
2021/01/04 06:51:24;;;;;;;48.30;21.00;;;;;;;2.52;85.20;98293.41;5073583;28;20031;-61
2021/01/04 06:54:07;;;;;;;59.13;22.43;;;;;;;2.61;85.22;98296.00;5074788;28;20028;-61
2021/01/04 06:56:51;;;;;;;58.33;21.97;;;;;;;2.59;86.12;98298.53;5073449;28;20024;-62
2021/01/04 06:59:50;;;;;;;54.53;22.23;;;;;;;2.58;86.06;98304.44;5068224;28;20047;-62
2021/01/04 07:02:24;;;;;;;55.23;23.37;;;;;;;2.46;85.89;98296.72;5064636;28;20044;-62
2021/01/04 07:04:52;;;;;;;55.42;22.77;;;;;;;2.43;85.95;98299.25;5075058;28;20033;-62
2021/01/04 07:07:33;;;;;;;52.73;21.77;;;;;;;2.46;85.91;98291.66;5070649;28;20036;-62
2021/01/04 07:10:19;;;;;;;53.00;23.07;;;;;;;2.46;86.02;98288.31;5059946;28;20012;-62
2021/01/04 07:13:20;;;;;;;52.20;23.33;;;;;;;2.43;85.95;98284.06;5069905;28;20457;-62
2021/01/04 07:16:13;;;;;;;57.93;24.87;;;;;;;2.43;86.15;98288.28;5073740;28;20024;-61
2021/01/04 07:19:10;;;;;;;48.97;21.87;;;;;;;2.43;86.63;98289.13;5066636;28;20108;-61
2021/01/04 07:21:44;;;;;;;56.90;23.83;;;;;;;2.42;87.08;98295.03;5067903;28;20052;-62
2021/01/04 07:24:43;;;;;;;51.83;22.83;;;;;;;2.54;86.83;98295.13;5072550;28;20298;-62
2021/01/04 07:27:34;;;;;;;58.43;24.10;;;;;;;2.55;86.81;98299.34;5073310;28;20765;-62
2021/01/04 07:30:12;;;;;;;54.47;23.90;;;;;;;2.58;86.66;98306.97;5071134;28;20024;-62
2021/01/04 07:33:03;;;;;;;57.37;21.77;;;;;;;2.55;87.05;98311.97;5072608;28;20103;-62
2021/01/04 07:35:41;;;;;;;62.20;22.67;;;;;;;2.53;87.56;98311.16;5072306;28;20088;-61
2021/01/04 07:38:21;;;;;;;57.70;23.30;;;;;;;2.65;86.85;98320.50;5072824;28;20036;-62
2021/01/04 07:40:55;;;;;;;60.37;23.97;;;;;;;2.61;86.65;98317.09;5072888;28;20087;-62
2021/01/04 07:44:02;;;;;;;54.27;24.70;;;;;;;2.63;86.79;98320.47;5072303;28;20056;-61
2021/01/04 07:46:44;;;;;;;49.13;23.43;;;;;;;2.62;87.27;98325.53;5027785;28;20037;-62
2021/01/04 07:49:28;;;;;;;63.10;22.30;;;;;;;2.67;87.20;98319.66;5055173;28;20025;-62
2021/01/04 07:52:19;;;;;;;63.70;26.73;;;;;;;2.66;87.58;98317.13;5061466;28;20025;-62
2021/01/04 07:54:47;;;;;;;66.77;25.87;;;;;;;2.71;87.22;98323.94;5036906;28;20032;-62
2021/01/04 07:57:34;;;;;;;55.33;26.60;;;;;;;2.72;86.94;98318.00;5064086;28;20029;-62
2021/01/04 08:00:23;;;;;;;60.90;26.33;;;;;;;2.59;87.52;98323.81;5063066;28;20032;-62
2021/01/04 08:02:54;;;;;;;69.10;27.63;;;;;;;2.39;88.02;98327.03;5068081;28;20341;-62
2021/01/04 08:05:57;;;;;;;72.90;33.17;;;;;;;2.47;88.20;98325.41;5071724;28;20058;-62
2021/01/04 08:08:26;;;;;;;82.07;33.53;;;;;;;2.50;88.43;98325.47;5069330;28;20020;-62
2021/01/04 08:11:16;;;;;;;65.87;26.40;;;;;;;2.61;88.27;98333.97;5070398;28;20016;-62
2021/01/04 08:14:03;;;;;;;67.97;26.77;;;;;;;2.69;88.40;98334.88;5069041;28;20017;-62
2021/01/04 08:16:36;;;;;;;67.30;26.27;;;;;;;2.67;87.61;98329.78;5065459;28;20025;-62
2021/01/04 08:19:05;;;;;;;68.33;27.77;;;;;;;2.41;88.43;98336.34;5071864;28;20100;-62
2021/01/04 08:21:47;;;;;;;82.07;25.67;;;;;;;2.45;89.21;98340.59;5069939;28;20463;-62
2021/01/04 08:24:30;;;;;;;75.40;26.83;;;;;;;2.42;89.20;98343.09;5072056;28;20035;-63
2021/01/04 08:27:01;;;;;;;79.43;27.23;;;;;;;2.51;89.07;98350.75;5074541;28;20024;-61
2021/01/04 08:29:34;;;;;;;72.73;25.57;;;;;;;2.52;89.28;98344.88;5065879;28;20092;-61
2021/01/04 08:32:12;;;;;;;86.17;25.67;;;;;;;2.61;88.90;98352.53;5071241;28;20024;-62
2021/01/04 08:34:42;;;;;;;76.10;28.03;;;;;;;2.61;89.43;98350.00;5072967;28;20048;-62
2021/01/04 08:37:08;;;;;;;78.97;31.77;;;;;;;2.59;88.85;98339.00;5073757;28;20016;-62
2021/01/04 08:39:39;;;;;;;79.63;29.77;;;;;;;2.80;88.97;98348.44;5074266;28;20024;-62
2021/01/04 08:42:04;;;;;;;76.33;28.83;;;;;;;2.74;88.44;98344.19;5073176;28;20021;-62
2021/01/04 08:44:35;;;;;;;69.77;27.60;;;;;;;2.88;88.43;98349.38;5074076;28;20043;-62
2021/01/04 08:47:41;;;;;;;75.97;29.50;;;;;;;2.92;87.92;98355.28;5073101;28;20132;-62
2021/01/04 08:50:10;;;;;;;71.57;27.90;;;;;;;2.90;88.45;98357.81;5069673;28;20033;-61
2021/01/04 08:52:46;;;;;;;71.10;26.97;;;;;;;3.01;88.24;98357.88;5074241;28;20502;-61
2021/01/04 08:55:24;;;;;;;76.23;27.90;;;;;;;3.04;87.63;98361.28;5072813;28;20388;-61
2021/01/04 08:57:49;;;;;;;67.33;26.50;;;;;;;3.00;87.78;98358.72;5072139;28;20039;-61
2021/01/04 09:00:20;;;;;;;63.23;25.90;;;;;;;3.06;87.67;98356.19;5072818;28;20028;-62
2021/01/04 09:02:47;;;;;;;63.27;24.73;;;;;;;3.02;87.48;98362.94;5070578;28;20024;-62
2021/01/04 09:05:15;;;;;;;72.57;27.03;;;;;;;2.93;87.94;98359.53;5073936;28;20452;-62
2021/01/04 09:07:50;;;;;;;64.60;25.30;;;;;;;2.97;87.64;98363.78;5072533;28;20092;-62
2021/01/04 09:10:25;;;;;;;72.60;26.73;;;;;;;2.95;87.83;98363.75;5074130;28;20032;-62
2021/01/04 09:12:52;;;;;;;64.72;28.70;;;;;;;2.93;87.77;98362.88;5074672;28;20028;-62
2021/01/04 09:15:20;;;;;;;141.67;66.40;;;;;;;2.99;87.51;98357.00;5073540;28;20085;-62
2021/01/04 09:18:01;;;;;;;76.77;38.43;;;;;;;3.07;86.69;98362.97;5072059;28;20021;-62
2021/01/04 09:20:43;;;;;;;68.77;30.17;;;;;;;3.09;86.88;98364.69;5073963;28;20020;-62
2021/01/04 09:23:21;;;;;;;67.10;26.47;;;;;;;3.03;87.19;98363.78;5073811;28;20032;-62
2021/01/04 09:25:53;;;;;;;92.47;38.83;;;;;;;3.05;87.15;98365.50;5070317;28;20114;-63
2021/01/04 09:28:22;;;;;;;80.07;34.50;;;;;;;3.02;87.37;98372.22;5070022;28;20116;-62
2021/01/04 09:30:49;;;;;;;67.13;29.53;;;;;;;3.04;87.29;98376.47;5069417;28;20012;-62
2021/01/04 09:33:20;;;;;;;123.67;54.20;;;;;;;3.05;87.25;98377.31;5071565;28;20028;-62
2021/01/04 09:35:46;;;;;;;85.63;35.13;;;;;;;2.94;87.84;98383.97;5073108;28;20457;-62
2021/01/04 09:38:20;;;;;;;77.43;31.13;;;;;;;3.03;88.21;98389.13;5073086;28;20028;-63
2021/01/04 09:40:51;;;;;;;65.73;30.10;;;;;;;3.10;87.88;98380.72;5066333;28;20063;-62
2021/01/04 09:43:24;;;;;;;79.30;32.67;;;;;;;3.03;87.75;98381.50;5056591;28;20029;-62
2021/01/04 09:45:51;;;;;;;62.57;28.17;;;;;;;3.01;88.11;98384.03;5076127;28;20056;-62
2021/01/04 09:48:31;;;;;;;92.17;40.87;;;;;;;3.04;87.82;98378.16;5074454;28;20103;-62
2021/01/04 09:51:01;;;;;;;76.63;33.50;;;;;;;2.97;88.14;98381.50;5076574;28;20036;-62
2021/01/04 09:53:31;;;;;;;61.47;26.47;;;;;;;3.05;88.02;98372.25;5072713;28;20025;-61
2021/01/04 09:55:59;;;;;;;65.47;25.37;;;;;;;3.07;87.41;98368.03;5076162;28;20039;-62
2021/01/04 09:58:24;;;;;;;62.20;23.50;;;;;;;2.90;87.88;98359.47;5072903;28;20025;-62
2021/01/04 10:00:50;;;;;;;67.47;26.70;;;;;;;3.00;87.99;98366.31;5076216;28;20112;-61
2021/01/04 10:03:19;;;;;;;72.57;28.83;;;;;;;3.01;87.88;98363.78;5073864;28;20036;-61
2021/01/04 10:05:48;;;;;;;59.03;24.87;;;;;;;2.96;87.65;98355.31;5068286;28;20029;-62
2021/01/04 10:08:21;;;;;;;58.27;25.53;;;;;;;3.00;87.63;98358.72;5073631;28;20039;-61
2021/01/04 10:10:56;;;;;;;77.93;26.87;;;;;;;2.99;87.43;98357.00;5073053;28;20139;-63
2021/01/04 10:13:23;;;;;;;58.83;24.57;;;;;;;2.92;87.88;98352.75;5074213;28;20028;-62
2021/01/04 10:15:54;;;;;;;54.77;24.97;;;;;;;3.05;87.34;98357.91;5073632;28;20028;-62
2021/01/04 10:18:30;;;;;;;60.80;24.60;;;;;;;2.94;87.16;98348.53;5074926;28;20481;-62
2021/01/04 10:20:56;;;;;;;60.50;26.53;;;;;;;2.76;87.32;98342.50;5073914;28;20441;-62
2021/01/04 10:23:31;;;;;;;59.17;24.53;;;;;;;2.84;87.56;98345.13;5068329;28;20031;-61
2021/01/04 10:25:59;;;;;;;56.40;25.73;;;;;;;2.86;87.59;98337.50;5073868;28;20093;-62
2021/01/04 10:28:37;;;;;;;53.93;22.00;;;;;;;2.80;87.65;98329.91;5074098;28;20114;-62
2021/01/04 10:31:04;;;;;;;55.23;23.07;;;;;;;2.80;87.72;98320.59;5073865;28;20108;-62
2021/01/04 10:33:34;;;;;;;51.20;23.17;;;;;;;2.86;87.66;98314.72;5074214;28;20025;-61
2021/01/04 10:36:04;;;;;;;57.33;22.77;;;;;;;2.92;87.46;98318.16;5072869;28;20377;-62
2021/01/04 10:38:31;;;;;;;55.40;23.77;;;;;;;2.89;87.68;98309.69;5074564;28;20028;-61
2021/01/04 10:40:57;;;;;;;56.00;24.40;;;;;;;2.95;87.36;98308.03;5070713;28;20051;-62
2021/01/04 10:43:24;;;;;;;56.27;23.80;;;;;;;3.03;87.46;98313.16;5070658;28;20036;-61
2021/01/04 10:45:51;;;;;;;56.50;22.57;;;;;;;2.94;87.73;98308.03;5071021;28;20028;-62
2021/01/04 10:48:23;;;;;;;54.50;21.70;;;;;;;2.90;87.76;98302.09;5073508;28;20067;-62
2021/01/04 10:50:55;;;;;;;58.63;22.77;;;;;;;2.92;87.70;98292.84;5064597;28;20075;-62
2021/01/04 10:53:40;;;;;;;51.87;22.77;;;;;;;2.97;87.22;98298.75;5061006;28;20054;-62
2021/01/04 10:56:08;;;;;;;53.20;22.45;;;;;;;2.95;86.83;98292.00;5069945;28;20034;-62
2021/01/04 10:58:46;;;;;;;59.63;22.70;;;;;;;3.02;87.15;98286.13;5073881;28;20397;-62
2021/01/04 11:01:24;;;;;;;52.63;22.40;;;;;;;3.05;87.47;98288.69;5071746;28;20028;-61
2021/01/04 11:03:55;;;;;;;56.20;22.97;;;;;;;3.08;87.80;98292.09;5071790;28;20528;-61
2021/01/04 11:06:26;;;;;;;52.20;23.43;;;;;;;3.12;87.38;98282.81;5061818;28;20055;-61
2021/01/04 11:08:51;;;;;;;48.80;21.23;;;;;;;2.97;87.79;98285.28;5073035;28;20055;-61
2021/01/04 11:11:32;;;;;;;52.83;20.80;;;;;;;3.03;87.32;98273.50;5073542;28;20461;-62
2021/01/04 11:14:27;;;;;;;43.87;20.57;;;;;;;3.05;87.47;98270.97;5071603;28;20103;-63
2021/01/04 11:16:58;;;;;;;52.90;21.73;;;;;;;3.06;87.22;98275.16;5060788;28;20329;-63
2021/01/04 11:19:29;;;;;;;48.47;20.63;;;;;;;2.98;86.50;98279.34;5072773;28;20039;-60
2021/01/04 11:21:54;;;;;;;52.37;20.40;;;;;;;2.90;87.08;98278.47;5070292;28;20032;-61
2021/01/04 11:24:20;;;;;;;50.13;20.67;;;;;;;2.97;87.48;98286.09;5068638;28;20032;-60
2021/01/04 11:26:46;;;;;;;48.43;21.10;;;;;;;2.87;86.86;98286.91;5069909;28;20161;-60
2021/01/04 11:29:12;;;;;;;47.77;20.93;;;;;;;2.99;87.36;98288.66;5072694;28;20099;-60
2021/01/04 11:31:37;;;;;;;53.57;21.60;;;;;;;3.06;87.47;98290.38;5074044;28;20024;-60
2021/01/04 11:34:04;;;;;;;41.47;19.07;;;;;;;3.08;87.31;98276.91;5072177;28;20437;-61
2021/01/04 11:36:30;;;;;;;50.30;19.83;;;;;;;3.13;87.39;98275.22;5070818;28;20067;-61
2021/01/04 11:38:55;;;;;;;50.80;19.60;;;;;;;3.20;86.94;98273.56;5061758;28;20024;-60
2021/01/04 11:41:20;;;;;;;52.10;20.87;;;;;;;3.26;86.55;98277.81;5066680;28;20032;-60
2021/01/04 11:43:48;;;;;;;63.00;25.03;;;;;;;3.33;86.24;98274.47;5064994;28;20032;-61
2021/01/04 11:46:15;;;;;;;53.10;21.37;;;;;;;3.11;86.36;98271.84;5063215;28;20095;-61
2021/01/04 11:48:41;;;;;;;53.30;23.23;;;;;;;3.21;86.59;98273.56;5063928;28;20028;-61
2021/01/04 11:51:06;;;;;;;47.73;21.27;;;;;;;3.31;86.21;98266.84;5064165;28;20027;-61
2021/01/04 11:53:32;;;;;;;50.23;21.43;;;;;;;3.30;85.91;98257.56;5064131;28;20123;-61
2021/01/04 11:55:58;;;;;;;52.60;22.03;;;;;;;3.32;85.94;98249.97;5063068;28;20460;-60
2021/01/04 11:58:23;;;;;;;52.60;22.20;;;;;;;3.34;86.14;98249.13;5066620;28;20052;-61
2021/01/04 12:00:50;;;;;;;48.23;20.63;;;;;;;3.41;86.43;98234.78;5069037;28;20395;-59
2021/01/04 12:03:15;;;;;;;44.47;18.40;;;;;;;3.43;86.16;98239.03;5070844;28;20044;-58
2021/01/04 12:05:40;;;;;;;48.37;21.30;;;;;;;3.53;85.77;98234.81;5068920;28;20106;-60